Terminal Aerodrome Forecast
Issued by NWS

Home | Current Version | Previous Version | Text Only | Print | Product List | Glossary On
Versions: 1 2 3 4 5 6 7 8 9 10 11 12
000
FTUS45 KRIW 251729
TAFWRL
TAF
KWRL 251729Z 2518/2618 34007KT P6SM BKN090
     FM252000 34010KT P6SM VCSH SCT040 BKN060
     FM260000 33010KT 6SM -SHRA BKN028
     FM260700 30007KT P6SM SCT026 BKN040
     FM261700 VRB05KT P6SM SCT060 SCT100=

USA.gov is the U.S. government's official web portal to all federal, state and local government web resources and services.